sensor_id;sensor_type;location;lat;lon;timestamp;P1;durP1;ratioP1;P2;durP2;ratioP2
21120;SDS011;12519;43.318;21.898;2022-09-01T00:01:58;14.0;;;13.0;;
21120;SDS011;12519;43.318;21.898;2022-09-01T00:06:35;14.0;;;13.0;;
21120;SDS011;12519;43.318;21.898;2022-09-01T00:11:14;14.0;;;13.0;;
21120;SDS011;12519;43.318;21.898;2022-09-01T00:15:54;15.0;;;13.0;;
21120;SDS011;12519;43.318;21.898;2022-09-01T00:20:32;15.0;;;13.0;;
21120;SDS011;12519;43.318;21.898;2022-09-01T00:25:09;16.0;;;13.0;;
21120;SDS011;12519;43.318;21.898;2022-09-01T00:29:46;16.0;;;13.0;;
21120;SDS011;12519;43.318;21.898;2022-09-01T00:34:22;16.0;;;13.0;;
21120;SDS011;12519;43.318;21.898;2022-09-01T00:39:00;16.0;;;13.0;;
21120;SDS011;12519;43.318;21.898;2022-09-01T00:43:45;16.0;;;13.0;;
21120;SDS011;12519;43.318;21.898;2022-09-01T00:48:30;16.0;;;13.0;;
21120;SDS011;12519;43.318;21.898;2022-09-01T00:53:09;16.0;;;13.0;;
21120;SDS011;12519;43.318;21.898;2022-09-01T00:57:46;16.0;;;13.0;;
21120;SDS011;12519;43.318;21.898;2022-09-01T01:11:41;21.0;;;14.0;;
21120;SDS011;12519;43.318;21.898;2022-09-01T01:16:19;21.0;;;14.0;;
21120;SDS011;12519;43.318;21.898;2022-09-01T01:21:09;21.0;;;14.0;;
21120;SDS011;12519;43.318;21.898;2022-09-01T01:25:59;21.0;;;14.0;;
21120;SDS011;12519;43.318;21.898;2022-09-01T01:30:46;21.0;;;14.0;;
21120;SDS011;12519;43.318;21.898;2022-09-01T01:35:32;20.0;;;14.0;;
21120;SDS011;12519;43.318;21.898;2022-09-01T01:40:19;20.0;;;14.0;;
21120;SDS011;12519;43.318;21.898;2022-09-01T01:44:57;20.0;;;13.0;;
21120;SDS011;12519;43.318;21.898;2022-09-01T01:49:36;20.0;;;13.0;;
21120;SDS011;12519;43.318;21.898;2022-09-01T01:54:15;17.0;;;12.0;;
21120;SDS011;12519;43.318;21.898;2022-09-01T01:58:56;17.0;;;12.0;;
21120;SDS011;12519;43.318;21.898;2022-09-01T02:03:37;14.0;;;11.0;;
21120;SDS011;12519;43.318;21.898;2022-09-01T02:08:22;14.0;;;11.0;;
21120;SDS011;12519;43.318;21.898;2022-09-01T02:13:05;14.0;;;12.0;;
21120;SDS011;12519;43.318;21.898;2022-09-01T02:17:46;14.0;;;12.0;;
21120;SDS011;12519;43.318;21.898;2022-09-01T02:22:23;13.0;;;12.0;;
21120;SDS011;12519;43.318;21.898;2022-09-01T02:27:00;13.0;;;12.0;;
21120;SDS011;12519;43.318;21.898;2022-09-01T02:31:39;15.0;;;12.0;;
21120;SDS011;12519;43.318;21.898;2022-09-01T02:36:18;15.0;;;12.0;;
21120;SDS011;12519;43.318;21.898;2022-09-01T02:41:01;15.0;;;12.0;;
21120;SDS011;12519;43.318;21.898;2022-09-01T02:45:39;17.0;;;13.0;;
21120;SDS011;12519;43.318;21.898;2022-09-01T02:50:17;17.0;;;13.0;;
21120;SDS011;12519;43.318;21.898;2022-09-01T02:54:55;16.0;;;14.0;;
21120;SDS011;12519;43.318;21.898;2022-09-01T02:59:33;16.0;;;14.0;;
21120;SDS011;12519;43.318;21.898;2022-09-01T03:04:11;15.0;;;14.0;;
21120;SDS011;12519;43.318;21.898;2022-09-01T03:08:57;15.0;;;14.0;;
21120;SDS011;12519;43.318;21.898;2022-09-01T03:13:40;14.0;;;14.0;;
21120;SDS011;12519;43.318;21.898;2022-09-01T03:18:18;14.0;;;14.0;;
21120;SDS011;12519;43.318;21.898;2022-09-01T03:22:56;13.0;;;13.0;;
21120;SDS011;12519;43.318;21.898;2022-09-01T03:27:33;13.0;;;13.0;;
21120;SDS011;12519;43.318;21.898;2022-09-01T03:32:10;14.0;;;12.0;;
21120;SDS011;12519;43.318;21.898;2022-09-01T03:36:46;14.0;;;12.0;;
21120;SDS011;12519;43.318;21.898;2022-09-01T03:41:29;14.0;;;12.0;;
21120;SDS011;12519;43.318;21.898;2022-09-01T03:46:06;14.0;;;12.0;;
21120;SDS011;12519;43.318;21.898;2022-09-01T03:50:45;14.0;;;12.0;;
21120;SDS011;12519;43.318;21.898;2022-09-01T03:55:30;14.0;;;12.0;;
21120;SDS011;12519;43.318;21.898;2022-09-01T04:00:11;14.0;;;12.0;;
21120;SDS011;12519;43.318;21.898;2022-09-01T04:04:48;14.0;;;13.0;;
21120;SDS011;12519;43.318;21.898;2022-09-01T04:09:26;14.0;;;13.0;;
21120;SDS011;12519;43.318;21.898;2022-09-01T04:14:04;14.0;;;12.0;;
21120;SDS011;12519;43.318;21.898;2022-09-01T04:18:41;14.0;;;12.0;;
21120;SDS011;12519;43.318;21.898;2022-09-01T04:23:25;13.0;;;12.0;;
21120;SDS011;12519;43.318;21.898;2022-09-01T04:28:09;13.0;;;12.0;;
21120;SDS011;12519;43.318;21.898;2022-09-01T04:32:47;14.0;;;13.0;;
21120;SDS011;12519;43.318;21.898;2022-09-01T04:37:24;14.0;;;13.0;;
21120;SDS011;12519;43.318;21.898;2022-09-01T04:42:01;16.0;;;14.0;;
21120;SDS011;12519;43.318;21.898;2022-09-01T04:46:42;16.0;;;14.0;;
21120;SDS011;12519;43.318;21.898;2022-09-01T04:51:24;16.0;;;14.0;;
21120;SDS011;12519;43.318;21.898;2022-09-01T04:56:03;21.0;;;16.0;;
21120;SDS011;12519;43.318;21.898;2022-09-01T05:00:48;21.0;;;16.0;;
21120;SDS011;12519;43.318;21.898;2022-09-01T05:05:26;26.0;;;18.0;;
21120;SDS011;12519;43.318;21.898;2022-09-01T05:10:11;26.0;;;18.0;;
21120;SDS011;12519;43.318;21.898;2022-09-01T05:14:48;22.0;;;16.0;;
21120;SDS011;12519;43.318;21.898;2022-09-01T05:19:27;22.0;;;16.0;;
21120;SDS011;12519;43.318;21.898;2022-09-01T05:24:05;17.0;;;13.0;;
21120;SDS011;12519;43.318;21.898;2022-09-01T05:28:43;17.0;;;13.0;;
21120;SDS011;12519;43.318;21.898;2022-09-01T05:33:29;16.0;;;13.0;;
21120;SDS011;12519;43.318;21.898;2022-09-01T05:38:07;16.0;;;13.0;;
21120;SDS011;12519;43.318;21.898;2022-09-01T05:42:47;15.0;;;13.0;;
21120;SDS011;12519;43.318;21.898;2022-09-01T05:47:24;15.0;;;13.0;;
21120;SDS011;12519;43.318;21.898;2022-09-01T05:52:02;16.0;;;14.0;;
21120;SDS011;12519;43.318;21.898;2022-09-01T05:56:39;16.0;;;14.0;;
21120;SDS011;12519;43.318;21.898;2022-09-01T06:01:25;16.0;;;14.0;;
21120;SDS011;12519;43.318;21.898;2022-09-01T06:06:06;16.0;;;14.0;;
21120;SDS011;12519;43.318;21.898;2022-09-01T06:10:43;16.0;;;14.0;;
21120;SDS011;12519;43.318;21.898;2022-09-01T06:15:20;15.0;;;13.0;;
21120;SDS011;12519;43.318;21.898;2022-09-01T06:19:57;15.0;;;13.0;;
21120;SDS011;12519;43.318;21.898;2022-09-01T06:24:33;14.0;;;12.0;;
21120;SDS011;12519;43.318;21.898;2022-09-01T06:29:10;14.0;;;12.0;;
21120;SDS011;12519;43.318;21.898;2022-09-01T06:33:46;16.0;;;12.0;;
21120;SDS011;12519;43.318;21.898;2022-09-01T06:38:23;16.0;;;12.0;;
21120;SDS011;12519;43.318;21.898;2022-09-01T06:42:59;17.0;;;13.0;;
21120;SDS011;12519;43.318;21.898;2022-09-01T06:47:36;17.0;;;13.0;;
21120;SDS011;12519;43.318;21.898;2022-09-01T06:52:13;14.0;;;12.0;;
21120;SDS011;12519;43.318;21.898;2022-09-01T06:56:50;14.0;;;12.0;;
21120;SDS011;12519;43.318;21.898;2022-09-01T07:01:27;14.0;;;12.0;;
21120;SDS011;12519;43.318;21.898;2022-09-01T07:06:06;12.0;;;12.0;;
21120;SDS011;12519;43.318;21.898;2022-09-01T07:10:50;12.0;;;12.0;;
21120;SDS011;12519;43.318;21.898;2022-09-01T07:15:28;13.0;;;12.0;;
21120;SDS011;12519;43.318;21.898;2022-09-01T07:20:09;13.0;;;12.0;;
21120;SDS011;12519;43.318;21.898;2022-09-01T07:24:47;14.0;;;12.0;;
21120;SDS011;12519;43.318;21.898;2022-09-01T07:29:24;14.0;;;12.0;;
21120;SDS011;12519;43.318;21.898;2022-09-01T07:34:12;14.0;;;12.0;;
21120;SDS011;12519;43.318;21.898;2022-09-01T07:38:50;14.0;;;12.0;;
21120;SDS011;12519;43.318;21.898;2022-09-01T07:43:29;14.0;;;12.0;;
21120;SDS011;12519;43.318;21.898;2022-09-01T07:48:06;14.0;;;12.0;;
21120;SDS011;12519;43.318;21.898;2022-09-01T07:52:44;14.0;;;12.0;;
21120;SDS011;12519;43.318;21.898;2022-09-01T07:57:21;14.0;;;12.0;;
21120;SDS011;12519;43.318;21.898;2022-09-01T08:01:58;14.0;;;12.0;;
21120;SDS011;12519;43.318;21.898;2022-09-01T08:06:35;14.0;;;12.0;;
21120;SDS011;12519;43.318;21.898;2022-09-01T08:11:18;14.0;;;12.0;;
21120;SDS011;12519;43.318;21.898;2022-09-01T08:16:08;16.0;;;12.0;;
21120;SDS011;12519;43.318;21.898;2022-09-01T08:20:48;16.0;;;12.0;;
21120;SDS011;12519;43.318;21.898;2022-09-01T08:25:25;18.0;;;11.0;;
21120;SDS011;12519;43.318;21.898;2022-09-01T08:30:12;18.0;;;11.0;;
21120;SDS011;12519;43.318;21.898;2022-09-01T08:34:49;18.0;;;12.0;;
21120;SDS011;12519;43.318;21.898;2022-09-01T08:39:26;18.0;;;12.0;;
21120;SDS011;12519;43.318;21.898;2022-09-01T08:44:31;17.0;;;13.0;;
21120;SDS011;12519;43.318;21.898;2022-09-01T08:49:26;17.0;;;13.0;;
21120;SDS011;12519;43.318;21.898;2022-09-01T08:54:27;16.0;;;12.0;;
21120;SDS011;12519;43.318;21.898;2022-09-01T08:59:20;16.0;;;12.0;;
21120;SDS011;12519;43.318;21.898;2022-09-01T09:04:37;16.0;;;12.0;;
21120;SDS011;12519;43.318;21.898;2022-09-01T09:09:43;16.0;;;12.0;;
21120;SDS011;12519;43.318;21.898;2022-09-01T09:14:59;14.0;;;11.0;;
21120;SDS011;12519;43.318;21.898;2022-09-01T09:19:44;14.0;;;11.0;;
21120;SDS011;12519;43.318;21.898;2022-09-01T09:24:36;11.0;;;10.0;;
21120;SDS011;12519;43.318;21.898;2022-09-01T09:29:20;11.0;;;10.0;;
21120;SDS011;12519;43.318;21.898;2022-09-01T09:34:00;12.0;;;12.0;;
21120;SDS011;12519;43.318;21.898;2022-09-01T09:38:37;12.0;;;12.0;;
21120;SDS011;12519;43.318;21.898;2022-09-01T09:43:15;13.0;;;13.0;;
21120;SDS011;12519;43.318;21.898;2022-09-01T09:47:56;13.0;;;13.0;;
21120;SDS011;12519;43.318;21.898;2022-09-01T09:52:35;14.0;;;13.0;;
21120;SDS011;12519;43.318;21.898;2022-09-01T09:57:17;14.0;;;13.0;;
21120;SDS011;12519;43.318;21.898;2022-09-01T10:02:06;14.0;;;13.0;;
21120;SDS011;12519;43.318;21.898;2022-09-01T10:07:32;14.0;;;13.0;;
21120;SDS011;12519;43.318;21.898;2022-09-01T10:12:13;14.0;;;13.0;;
21120;SDS011;12519;43.318;21.898;2022-09-01T10:17:07;14.0;;;12.0;;
21120;SDS011;12519;43.318;21.898;2022-09-01T10:21:54;14.0;;;12.0;;
21120;SDS011;12519;43.318;21.898;2022-09-01T10:26:41;14.0;;;11.0;;
21120;SDS011;12519;43.318;21.898;2022-09-01T10:31:36;14.0;;;11.0;;
21120;SDS011;12519;43.318;21.898;2022-09-01T10:36:17;14.0;;;12.0;;
21120;SDS011;12519;43.318;21.898;2022-09-01T10:40:59;14.0;;;12.0;;
21120;SDS011;12519;43.318;21.898;2022-09-01T10:45:38;15.0;;;13.0;;
21120;SDS011;12519;43.318;21.898;2022-09-01T10:50:31;15.0;;;13.0;;
21120;SDS011;12519;43.318;21.898;2022-09-01T10:55:17;14.0;;;12.0;;
21120;SDS011;12519;43.318;21.898;2022-09-01T11:00:52;14.0;;;12.0;;
21120;SDS011;12519;43.318;21.898;2022-09-01T11:06:00;13.0;;;11.0;;
21120;SDS011;12519;43.318;21.898;2022-09-01T11:11:03;13.0;;;11.0;;
21120;SDS011;12519;43.318;21.898;2022-09-01T11:16:36;13.0;;;12.0;;
21120;SDS011;12519;43.318;21.898;2022-09-01T11:21:29;13.0;;;12.0;;
21120;SDS011;12519;43.318;21.898;2022-09-01T11:26:48;13.0;;;12.0;;
21120;SDS011;12519;43.318;21.898;2022-09-01T11:31:39;13.0;;;12.0;;
21120;SDS011;12519;43.318;21.898;2022-09-01T11:36:31;12.0;;;12.0;;
21120;SDS011;12519;43.318;21.898;2022-09-01T11:41:25;12.0;;;12.0;;
21120;SDS011;12519;43.318;21.898;2022-09-01T11:46:21;12.0;;;11.0;;
21120;SDS011;12519;43.318;21.898;2022-09-01T11:51:04;12.0;;;11.0;;
21120;SDS011;12519;43.318;21.898;2022-09-01T11:55:47;11.0;;;10.0;;
21120;SDS011;12519;43.318;21.898;2022-09-01T12:00:34;11.0;;;10.0;;
21120;SDS011;12519;43.318;21.898;2022-09-01T12:05:36;10.0;;;9.0;;
21120;SDS011;12519;43.318;21.898;2022-09-01T12:10:28;10.0;;;9.0;;
21120;SDS011;12519;43.318;21.898;2022-09-01T12:15:25;11.0;;;10.0;;
21120;SDS011;12519;43.318;21.898;2022-09-01T12:20:28;11.0;;;10.0;;
21120;SDS011;12519;43.318;21.898;2022-09-01T12:25:24;12.0;;;11.0;;
21120;SDS011;12519;43.318;21.898;2022-09-01T12:30:11;12.0;;;11.0;;
21120;SDS011;12519;43.318;21.898;2022-09-01T12:35:15;14.0;;;12.0;;
21120;SDS011;12519;43.318;21.898;2022-09-01T12:40:03;14.0;;;12.0;;
21120;SDS011;12519;43.318;21.898;2022-09-01T12:45:08;16.0;;;12.0;;
21120;SDS011;12519;43.318;21.898;2022-09-01T12:49:47;16.0;;;12.0;;
21120;SDS011;12519;43.318;21.898;2022-09-01T12:54:25;16.0;;;12.0;;
21120;SDS011;12519;43.318;21.898;2022-09-01T12:59:13;16.0;;;12.0;;
21120;SDS011;12519;43.318;21.898;2022-09-01T13:04:19;16.0;;;11.0;;
21120;SDS011;12519;43.318;21.898;2022-09-01T13:09:06;16.0;;;11.0;;
21120;SDS011;12519;43.318;21.898;2022-09-01T13:13:44;16.0;;;12.0;;
21120;SDS011;12519;43.318;21.898;2022-09-01T13:18:25;16.0;;;12.0;;
21120;SDS011;12519;43.318;21.898;2022-09-01T13:23:05;15.0;;;12.0;;
21120;SDS011;12519;43.318;21.898;2022-09-01T13:27:45;15.0;;;12.0;;
21120;SDS011;12519;43.318;21.898;2022-09-01T13:32:25;15.0;;;12.0;;
21120;SDS011;12519;43.318;21.898;2022-09-01T13:37:03;16.0;;;13.0;;
21120;SDS011;12519;43.318;21.898;2022-09-01T13:41:40;16.0;;;13.0;;
21120;SDS011;12519;43.318;21.898;2022-09-01T13:46:17;16.0;;;14.0;;
21120;SDS011;12519;43.318;21.898;2022-09-01T13:50:56;16.0;;;14.0;;
21120;SDS011;12519;43.318;21.898;2022-09-01T13:55:40;16.0;;;14.0;;
21120;SDS011;12519;43.318;21.898;2022-09-01T14:00:25;16.0;;;14.0;;
21120;SDS011;12519;43.318;21.898;2022-09-01T14:05:09;15.0;;;14.0;;
21120;SDS011;12519;43.318;21.898;2022-09-01T14:09:46;15.0;;;14.0;;
21120;SDS011;12519;43.318;21.898;2022-09-01T14:14:23;18.0;;;14.0;;
21120;SDS011;12519;43.318;21.898;2022-09-01T14:19:00;18.0;;;14.0;;
21120;SDS011;12519;43.318;21.898;2022-09-01T14:23:37;21.0;;;15.0;;
21120;SDS011;12519;43.318;21.898;2022-09-01T14:28:15;21.0;;;15.0;;
21120;SDS011;12519;43.318;21.898;2022-09-01T14:32:53;21.0;;;15.0;;
21120;SDS011;12519;43.318;21.898;2022-09-01T14:37:29;22.0;;;16.0;;
21120;SDS011;12519;43.318;21.898;2022-09-01T14:42:06;22.0;;;16.0;;
21120;SDS011;12519;43.318;21.898;2022-09-01T14:46:43;22.0;;;18.0;;
21120;SDS011;12519;43.318;21.898;2022-09-01T14:51:27;22.0;;;18.0;;
21120;SDS011;12519;43.318;21.898;2022-09-01T14:56:06;24.0;;;20.0;;
21120;SDS011;12519;43.318;21.898;2022-09-01T15:00:43;24.0;;;20.0;;
21120;SDS011;12519;43.318;21.898;2022-09-01T15:05:23;26.0;;;22.0;;
21120;SDS011;12519;43.318;21.898;2022-09-01T15:10:02;26.0;;;22.0;;
21120;SDS011;12519;43.318;21.898;2022-09-01T15:14:40;22.0;;;20.0;;
21120;SDS011;12519;43.318;21.898;2022-09-01T15:19:17;22.0;;;20.0;;
21120;SDS011;12519;43.318;21.898;2022-09-01T15:23:55;19.0;;;18.0;;
21120;SDS011;12519;43.318;21.898;2022-09-01T15:28:35;19.0;;;18.0;;
21120;SDS011;12519;43.318;21.898;2022-09-01T15:33:14;18.0;;;16.0;;
21120;SDS011;12519;43.318;21.898;2022-09-01T15:37:54;18.0;;;16.0;;
21120;SDS011;12519;43.318;21.898;2022-09-01T15:42:35;18.0;;;16.0;;
21120;SDS011;12519;43.318;21.898;2022-09-01T15:47:14;17.0;;;15.0;;
21120;SDS011;12519;43.318;21.898;2022-09-01T15:51:55;17.0;;;15.0;;
21120;SDS011;12519;43.318;21.898;2022-09-01T15:56:34;26.0;;;21.0;;
21120;SDS011;12519;43.318;21.898;2022-09-01T16:01:14;26.0;;;21.0;;
21120;SDS011;12519;43.318;21.898;2022-09-01T16:05:55;36.0;;;27.0;;
21120;SDS011;12519;43.318;21.898;2022-09-01T16:10:32;36.0;;;27.0;;
21120;SDS011;12519;43.318;21.898;2022-09-01T16:15:21;39.0;;;28.0;;
21120;SDS011;12519;43.318;21.898;2022-09-01T16:20:13;39.0;;;28.0;;
21120;SDS011;12519;43.318;21.898;2022-09-01T16:25:25;42.0;;;29.0;;
21120;SDS011;12519;43.318;21.898;2022-09-01T16:30:18;42.0;;;29.0;;
21120;SDS011;12519;43.318;21.898;2022-09-01T16:35:05;38.0;;;28.0;;
21120;SDS011;12519;43.318;21.898;2022-09-01T16:39:58;38.0;;;28.0;;
21120;SDS011;12519;43.318;21.898;2022-09-01T16:45:43;34.0;;;27.0;;
21120;SDS011;12519;43.318;21.898;2022-09-01T16:51:12;34.0;;;27.0;;
21120;SDS011;12519;43.318;21.898;2022-09-01T16:56:13;34.0;;;28.0;;
21120;SDS011;12519;43.318;21.898;2022-09-01T17:01:33;34.0;;;28.0;;
21120;SDS011;12519;43.318;21.898;2022-09-01T17:06:31;33.0;;;28.0;;
21120;SDS011;12519;43.318;21.898;2022-09-01T17:11:34;33.0;;;28.0;;
21120;SDS011;12519;43.318;21.898;2022-09-01T17:16:29;36.0;;;28.0;;
21120;SDS011;12519;43.318;21.898;2022-09-01T17:21:21;36.0;;;28.0;;
21120;SDS011;12519;43.318;21.898;2022-09-01T17:26:20;40.0;;;29.0;;
21120;SDS011;12519;43.318;21.898;2022-09-01T17:31:14;40.0;;;29.0;;
21120;SDS011;12519;43.318;21.898;2022-09-01T17:36:46;40.0;;;28.0;;
21120;SDS011;12519;43.318;21.898;2022-09-01T17:41:55;40.0;;;28.0;;
21120;SDS011;12519;43.318;21.898;2022-09-01T17:46:52;39.0;;;27.0;;
21120;SDS011;12519;43.318;21.898;2022-09-01T17:52:01;39.0;;;27.0;;
21120;SDS011;12519;43.318;21.898;2022-09-01T17:57:38;37.0;;;28.0;;
21120;SDS011;12519;43.318;21.898;2022-09-01T18:03:26;35.0;;;29.0;;
21120;SDS011;12519;43.318;21.898;2022-09-01T18:09:07;35.0;;;29.0;;
21120;SDS011;12519;43.318;21.898;2022-09-01T18:14:13;35.0;;;29.0;;
21120;SDS011;12519;43.318;21.898;2022-09-01T18:19:26;35.0;;;29.0;;
21120;SDS011;12519;43.318;21.898;2022-09-01T18:35:26;28.0;;;23.0;;
21120;SDS011;12519;43.318;21.898;2022-09-01T18:40:59;28.0;;;23.0;;
21120;SDS011;12519;43.318;21.898;2022-09-01T18:46:14;28.0;;;23.0;;
21120;SDS011;12519;43.318;21.898;2022-09-01T18:51:49;28.0;;;23.0;;
21120;SDS011;12519;43.318;21.898;2022-09-01T18:57:18;29.0;;;24.0;;
21120;SDS011;12519;43.318;21.898;2022-09-01T19:03:28;29.0;;;24.0;;
21120;SDS011;12519;43.318;21.898;2022-09-01T19:08:53;30.0;;;25.0;;
21120;SDS011;12519;43.318;21.898;2022-09-01T19:14:23;34.0;;;26.0;;
21120;SDS011;12519;43.318;21.898;2022-09-01T19:19:43;34.0;;;26.0;;
21120;SDS011;12519;43.318;21.898;2022-09-01T19:24:48;37.0;;;27.0;;
21120;SDS011;12519;43.318;21.898;2022-09-01T19:29:46;37.0;;;27.0;;
21120;SDS011;12519;43.318;21.898;2022-09-01T19:34:40;34.0;;;26.0;;
21120;SDS011;12519;43.318;21.898;2022-09-01T19:39:34;34.0;;;26.0;;
21120;SDS011;12519;43.318;21.898;2022-09-01T19:44:31;31.0;;;25.0;;
21120;SDS011;12519;43.318;21.898;2022-09-01T19:49:34;31.0;;;25.0;;
21120;SDS011;12519;43.318;21.898;2022-09-01T19:54:40;31.0;;;26.0;;
21120;SDS011;12519;43.318;21.898;2022-09-01T19:59:46;31.0;;;26.0;;
21120;SDS011;12519;43.318;21.898;2022-09-01T20:04:49;31.0;;;27.0;;
21120;SDS011;12519;43.318;21.898;2022-09-01T20:09:50;31.0;;;27.0;;
21120;SDS011;12519;43.318;21.898;2022-09-01T20:15:09;32.0;;;27.0;;
21120;SDS011;12519;43.318;21.898;2022-09-01T20:20:20;32.0;;;27.0;;
21120;SDS011;12519;43.318;21.898;2022-09-01T20:25:20;32.0;;;27.0;;
21120;SDS011;12519;43.318;21.898;2022-09-01T20:30:24;32.0;;;27.0;;
21120;SDS011;12519;43.318;21.898;2022-09-01T20:35:30;35.0;;;26.0;;
21120;SDS011;12519;43.318;21.898;2022-09-01T20:40:38;35.0;;;26.0;;
21120;SDS011;12519;43.318;21.898;2022-09-01T20:45:23;38.0;;;26.0;;
21120;SDS011;12519;43.318;21.898;2022-09-01T20:50:12;38.0;;;26.0;;
21120;SDS011;12519;43.318;21.898;2022-09-01T20:55:09;34.0;;;25.0;;
21120;SDS011;12519;43.318;21.898;2022-09-01T21:00:22;34.0;;;25.0;;
21120;SDS011;12519;43.318;21.898;2022-09-01T21:05:43;29.0;;;24.0;;
21120;SDS011;12519;43.318;21.898;2022-09-01T21:11:18;29.0;;;24.0;;
21120;SDS011;12519;43.318;21.898;2022-09-01T21:16:54;30.0;;;22.0;;
21120;SDS011;12519;43.318;21.898;2022-09-01T21:22:15;30.0;;;22.0;;
21120;SDS011;12519;43.318;21.898;2022-09-01T21:26:55;31.0;;;21.0;;
21120;SDS011;12519;43.318;21.898;2022-09-01T21:31:41;31.0;;;21.0;;
21120;SDS011;12519;43.318;21.898;2022-09-01T21:36:18;24.0;;;18.0;;
21120;SDS011;12519;43.318;21.898;2022-09-01T21:40:59;24.0;;;18.0;;
21120;SDS011;12519;43.318;21.898;2022-09-01T21:45:38;17.0;;;15.0;;
21120;SDS011;12519;43.318;21.898;2022-09-01T21:50:22;17.0;;;15.0;;
21120;SDS011;12519;43.318;21.898;2022-09-01T21:55:01;14.0;;;12.0;;
21120;SDS011;12519;43.318;21.898;2022-09-01T21:59:43;14.0;;;12.0;;
21120;SDS011;12519;43.318;21.898;2022-09-01T22:04:21;11.0;;;10.0;;
21120;SDS011;12519;43.318;21.898;2022-09-01T22:09:00;11.0;;;10.0;;
21120;SDS011;12519;43.318;21.898;2022-09-01T22:13:42;11.0;;;10.0;;
21120;SDS011;12519;43.318;21.898;2022-09-01T22:18:21;11.0;;;10.0;;
21120;SDS011;12519;43.318;21.898;2022-09-01T22:22:57;11.0;;;10.0;;
21120;SDS011;12519;43.318;21.898;2022-09-01T22:27:34;11.0;;;9.0;;
21120;SDS011;12519;43.318;21.898;2022-09-01T22:32:11;11.0;;;9.0;;
21120;SDS011;12519;43.318;21.898;2022-09-01T22:36:48;10.0;;;8.0;;
21120;SDS011;12519;43.318;21.898;2022-09-01T22:41:30;10.0;;;8.0;;
21120;SDS011;12519;43.318;21.898;2022-09-01T22:46:09;9.0;;;8.0;;
21120;SDS011;12519;43.318;21.898;2022-09-01T22:50:48;9.0;;;8.0;;
21120;SDS011;12519;43.318;21.898;2022-09-01T22:55:27;10.0;;;8.0;;
21120;SDS011;12519;43.318;21.898;2022-09-01T23:00:10;10.0;;;8.0;;
21120;SDS011;12519;43.318;21.898;2022-09-01T23:04:49;11.0;;;9.0;;
21120;SDS011;12519;43.318;21.898;2022-09-01T23:09:26;11.0;;;9.0;;
21120;SDS011;12519;43.318;21.898;2022-09-01T23:14:05;9.0;;;8.0;;
21120;SDS011;12519;43.318;21.898;2022-09-01T23:18:46;9.0;;;8.0;;
21120;SDS011;12519;43.318;21.898;2022-09-01T23:23:30;9.0;;;8.0;;
21120;SDS011;12519;43.318;21.898;2022-09-01T23:28:15;7.0;;;6.0;;
21120;SDS011;12519;43.318;21.898;2022-09-01T23:32:53;7.0;;;6.0;;
21120;SDS011;12519;43.318;21.898;2022-09-01T23:37:31;6.0;;;6.0;;
21120;SDS011;12519;43.318;21.898;2022-09-01T23:42:09;6.0;;;6.0;;
21120;SDS011;12519;43.318;21.898;2022-09-01T23:46:46;6.0;;;5.0;;
21120;SDS011;12519;43.318;21.898;2022-09-01T23:51:26;6.0;;;5.0;;
21120;SDS011;12519;43.318;21.898;2022-09-01T23:56:11;6.0;;;5.0;;
